Postoak, Texas
Current Conditions -  °F | °C
As of 1:15 AM on Thursday 18 Dec 2014 (Local Time) from K0F2 Reporting Station
Haze Haze  
Wind Chill: 34°   Ceiling: 300
Heat Index: 39°   Visibility: 2.5mi
Dew Point: 39°   Wind: 7mph
Humidity: 99%   Direction: 130°SE
Pressure: 30.11"   Gusts: NA
Location:  33.5529°N, 97.8448°W
Report Text: K0F2 180715Z AUTO 13006KT 2 1/2SM BR OVC003 04/04 A3011 RMK AO2 T00380037
Loading
Personal Weather Stations






























Interactive Weather Map New forecast layout! Learn more

10-Day Weather Forecast

Advertisements
Track Severe Weather on mobile